Time;durP1;ratioP1;P1;durP2;ratioP2;P2;SDS_P1;SDS_P2;PMS_P1;PMS_P2;Temp;Humidity;BMP_temperature;BMP_pressure;BME280_temperature;BME280_humidity;BME280_pressure;Samples;Min_cycle;Max_cycle;Signal;HPM_P1;HPM_P2
2022/11/09 00:00:00;;;;;;;;;;;;;;;12.63;100.00;100890.47;6311856;22;19911;-88
2022/11/09 00:02:26;;;;;;;;;;;;;;;12.64;100.00;100892.13;6286171;22;19933;-90
2022/11/09 00:04:51;;;;;;;;;;;;;;;12.90;100.00;100898.94;6313199;22;19993;-90
2022/11/09 00:07:17;;;;;;;;;;;;;;;12.82;100.00;100893.66;6312426;22;19918;-87
2022/11/09 00:09:43;;;;;;;;;;;;;;;12.77;100.00;100898.63;6286391;22;19907;-88
2022/11/09 00:12:08;;;;;;;;;;;;;;;12.70;100.00;100897.63;6285417;22;20326;-88
2022/11/09 00:14:34;;;;;;;;;;;;;;;12.68;100.00;100890.81;6312792;22;19915;-87
2022/11/09 00:17:00;;;;;;;;;;;;;;;12.61;100.00;100882.66;6313281;22;19954;-90
2022/11/09 00:19:25;;;;;;;;;;;;;;;12.80;100.00;100892.13;6313511;22;19914;-90
2022/11/09 00:21:50;;;;;;;;;;;;;;;12.90;100.00;100895.44;6312932;22;19922;-88
2022/11/09 00:24:16;;;;;;;;;;;;;;;13.02;100.00;100901.28;6311395;22;19910;-89
2022/11/09 00:26:41;;;;;;;;;;;;;;;12.95;100.00;100903.78;6284525;22;19911;-88
2022/11/09 00:29:07;;;;;;;;;;;;;;;13.07;100.00;100907.75;6312472;22;20270;-88
2022/11/09 00:31:33;;;;;;;;;;;;;;;13.08;100.00;100908.56;6312823;22;19913;-89
2022/11/09 00:33:59;;;;;;;;;;;;;;;13.11;100.00;100900.28;6315078;22;19914;-90
2022/11/09 00:36:25;;;;;;;;;;;;;;;13.00;100.00;100901.41;6312835;22;20353;-90
2022/11/09 00:38:58;;;;;;;;;;;;;;;13.02;100.00;100903.94;6313295;22;19990;-89
2022/11/09 00:41:24;;;;;;;;;;;;;;;13.09;100.00;100905.75;6313620;22;19910;-90
2022/11/09 00:43:50;;;;;;;;;;;;;;;12.83;100.00;100905.94;6314279;22;19906;-89
2022/11/09 00:46:15;;;;;;;;;;;;;;;12.88;100.00;100903.63;6295044;22;19911;-89
2022/11/09 00:48:42;;;;;;;;;;;;;;;12.93;100.00;100906.59;6324412;22;19910;-88
2022/11/09 00:51:08;;;;;;;;;;;;;;;12.88;100.00;100902.78;6309857;22;19978;-89
2022/11/09 00:53:33;;;;;;;;;;;;;;;12.92;100.00;100899.63;6307647;22;19903;-88
2022/11/09 00:56:00;;;;;;;;;;;;;;;12.89;100.00;100905.25;6309709;22;19921;-87
2022/11/09 00:58:30;;;;;;;;;;;;;;;12.67;100.00;100911.25;6307693;22;19923;-89
2022/11/09 01:00:56;;;;;;;;;;;;;;;12.56;100.00;100903.59;6309718;22;19920;-90
2022/11/09 01:03:23;;;;;;;;;;;;;;;12.59;100.00;100892.66;6333279;22;19959;-88
2022/11/09 01:05:49;;;;;;;;;;;;;;;12.63;100.00;100891.31;6316759;22;19911;-91
2022/11/09 01:08:16;;;;;;;;;;;;;;;12.34;100.00;100889.13;6288275;22;19918;-90
2022/11/09 01:10:42;;;;;;;;;;;;;;;12.53;100.00;100895.94;6313952;22;19911;-90
2022/11/09 01:13:09;;;;;;;;;;;;;;;12.76;100.00;100898.81;6314453;22;19959;-90
2022/11/09 01:15:39;;;;;;;;;;;;;;;12.69;100.00;100895.97;6312753;22;19915;-90
2022/11/09 01:18:04;;;;;;;;;;;;;;;12.64;100.00;100903.63;6313465;22;20000;-90
2022/11/09 01:20:29;;;;;;;;;;;;;;;12.69;100.00;100903.13;6314335;22;19921;-87
2022/11/09 01:22:55;;;;;;;;;;;;;;;12.74;100.00;100890.97;6313485;22;20249;-91
2022/11/09 01:25:20;;;;;;;;;;;;;;;12.67;100.00;100887.31;6315670;22;19907;-90
2022/11/09 01:27:46;;;;;;;;;;;;;;;12.69;100.00;100893.31;6286011;22;19926;-90
2022/11/09 01:30:11;;;;;;;;;;;;;;;12.81;100.00;100891.97;6313697;22;19917;-91
2022/11/09 01:32:40;;;;;;;;;;;;;;;12.61;100.00;100887.16;6285471;22;19978;-90
2022/11/09 01:35:05;;;;;;;;;;;;;;;12.57;100.00;100884.00;6314764;22;19918;-89
2022/11/09 01:37:31;;;;;;;;;;;;;;;12.64;100.00;100879.69;6288403;22;19911;-89
2022/11/09 01:39:56;;;;;;;;;;;;;;;12.43;100.00;100882.81;6296172;22;19911;-88
2022/11/09 01:42:24;;;;;;;;;;;;;;;12.62;100.00;100880.84;6296253;22;19951;-90
2022/11/09 01:45:10;;;;;;;;;;;;;;;12.66;100.00;100879.53;6325132;22;19985;-89
2022/11/09 01:47:37;;;;;;;;;;;;;;;12.59;100.00;100882.03;6297307;22;20330;-88
2022/11/09 01:50:02;;;;;;;;;;;;;;;12.58;100.00;100874.19;6292604;22;19960;-90
2022/11/09 01:52:33;;;;;;;;;;;;;;;12.51;100.00;100873.19;6257599;22;19982;-88
2022/11/09 01:55:01;;;;;;;;;;;;;;;12.55;100.00;100864.72;6311030;22;19917;-87
2022/11/09 01:57:37;;;;;;;;;;;;;;;12.37;100.00;100867.53;6283561;22;19911;-89
2022/11/09 02:00:06;;;;;;;;;;;;;;;12.31;100.00;100865.53;6283082;22;19907;-89
2022/11/09 02:02:41;;;;;;;;;;;;;;;12.08;100.00;100866.34;6285436;22;19910;-89
2022/11/09 02:05:11;;;;;;;;;;;;;;;11.86;100.00;100863.28;6258118;22;19928;-90
2022/11/09 02:07:36;;;;;;;;;;;;;;;11.83;100.00;100863.63;6282727;22;19918;-91
2022/11/09 02:10:05;;;;;;;;;;;;;;;11.75;100.00;100871.56;6283520;22;19907;-89
2022/11/09 02:12:33;;;;;;;;;;;;;;;11.77;100.00;100869.56;6310936;22;20329;-89
2022/11/09 02:15:00;;;;;;;;;;;;;;;11.78;100.00;100868.59;6310635;22;20009;-89
2022/11/09 02:17:26;;;;;;;;;;;;;;;11.88;100.00;100865.81;6283639;22;20049;-88
2022/11/09 02:19:51;;;;;;;;;;;;;;;11.96;100.00;100857.03;6283669;22;19921;-89
2022/11/09 02:22:18;;;;;;;;;;;;;;;12.22;100.00;100858.56;6284295;22;19917;-89
2022/11/09 02:24:44;;;;;;;;;;;;;;;12.09;100.00;100860.88;6303846;22;19978;-89
2022/11/09 02:27:09;;;;;;;;;;;;;;;12.23;100.00;100859.41;6310489;22;20378;-89
2022/11/09 02:29:39;;;;;;;;;;;;;;;12.20;100.00;100857.88;6258457;22;19907;-88
2022/11/09 02:32:08;;;;;;;;;;;;;;;12.13;100.00;100854.22;6283202;22;19910;-88
2022/11/09 02:34:34;;;;;;;;;;;;;;;12.02;100.00;100851.06;6283356;22;19915;-89
2022/11/09 02:37:00;;;;;;;;;;;;;;;11.95;100.00;100842.06;6282817;22;19911;-88
2022/11/09 02:39:27;;;;;;;;;;;;;;;12.17;100.00;100849.41;6283313;22;19917;-88
2022/11/09 02:41:52;;;;;;;;;;;;;;;12.27;100.00;100852.75;6283113;22;20223;-89
2022/11/09 02:44:18;;;;;;;;;;;;;;;12.06;100.00;100852.41;6310113;22;19913;-90
2022/11/09 02:46:44;;;;;;;;;;;;;;;12.07;100.00;100849.56;6257753;22;19969;-88
2022/11/09 02:49:10;;;;;;;;;;;;;;;12.12;100.00;100854.41;6283141;22;19911;-90
2022/11/09 02:51:35;;;;;;;;;;;;;;;12.15;100.00;100848.75;6289356;22;19911;-92
2022/11/09 02:54:01;;;;;;;;;;;;;;;12.19;100.00;100847.44;6260192;22;19910;-90
2022/11/09 02:56:26;;;;;;;;;;;;;;;12.26;100.00;100848.44;6284530;22;19911;-90
2022/11/09 02:58:53;;;;;;;;;;;;;;;12.13;100.00;100850.75;6311263;22;19914;-90
2022/11/09 03:01:19;;;;;;;;;;;;;;;12.22;100.00;100852.41;6283608;22;19911;-90
2022/11/09 03:03:44;;;;;;;;;;;;;;;12.23;100.00;100854.09;6310971;22;19911;-90
2022/11/09 03:06:11;;;;;;;;;;;;;;;12.00;100.00;100853.06;6283403;22;20249;-90
2022/11/09 03:08:37;;;;;;;;;;;;;;;12.04;100.00;100854.38;6285555;22;19921;-88
2022/11/09 03:11:02;;;;;;;;;;;;;;;11.88;100.00;100850.69;6284104;22;19917;-90
2022/11/09 03:13:28;;;;;;;;;;;;;;;12.02;100.00;100856.38;6283272;22;20334;-91
2022/11/09 03:15:53;;;;;;;;;;;;;;;12.08;100.00;100853.06;6257491;22;19911;-91
2022/11/09 03:18:19;;;;;;;;;;;;;;;12.00;100.00;100855.72;6310196;22;20278;-89
2022/11/09 03:20:44;;;;;;;;;;;;;;;12.10;100.00;100856.38;6312220;22;19915;-89
2022/11/09 03:23:10;;;;;;;;;;;;;;;12.04;100.00;100849.06;6285877;22;19911;-89
2022/11/09 03:25:37;;;;;;;;;;;;;;;11.99;100.00;100851.38;6260967;22;19911;-88
2022/11/09 03:28:05;;;;;;;;;;;;;;;12.05;100.00;100850.72;6260717;22;19911;-91
2022/11/09 03:30:31;;;;;;;;;;;;;;;12.02;100.00;100848.41;6285154;22;19962;-90
2022/11/09 03:33:01;;;;;;;;;;;;;;;11.99;100.00;100851.38;6260336;22;20395;-89
2022/11/09 03:35:27;;;;;;;;;;;;;;;12.15;100.00;100848.75;6259932;22;19918;-90
2022/11/09 03:37:53;;;;;;;;;;;;;;;12.30;100.00;100849.75;6285111;22;19911;-92
2022/11/09 03:40:19;;;;;;;;;;;;;;;12.16;100.00;100842.44;6285834;22;19913;-90
2022/11/09 03:42:46;;;;;;;;;;;;;;;12.21;100.00;100845.44;6285634;22;20305;-91
2022/11/09 03:45:13;;;;;;;;;;;;;;;12.11;100.00;100850.91;6313116;22;19911;-90
2022/11/09 03:47:45;;;;;;;;;;;;;;;11.90;100.00;100843.38;6286350;22;19930;-90
2022/11/09 03:50:11;;;;;;;;;;;;;;;11.89;100.00;100843.56;6313177;22;19980;-89
2022/11/09 03:52:37;;;;;;;;;;;;;;;11.79;100.00;100840.22;6285173;22;19945;-90
2022/11/09 03:55:02;;;;;;;;;;;;;;;11.72;100.00;100844.50;6284867;22;19907;-89
2022/11/09 03:57:28;;;;;;;;;;;;;;;11.82;100.00;100834.59;6312485;22;19910;-90
2022/11/09 03:59:53;;;;;;;;;;;;;;;11.74;100.00;100832.72;6259562;22;19917;-89
2022/11/09 04:02:19;;;;;;;;;;;;;;;11.63;100.00;100837.50;6312511;22;19911;-87
2022/11/09 04:04:44;;;;;;;;;;;;;;;11.67;100.00;100836.16;6312841;22;19956;-89
2022/11/09 04:07:10;;;;;;;;;;;;;;;11.82;100.00;100840.72;6317969;22;20282;-90
2022/11/09 04:09:35;;;;;;;;;;;;;;;11.92;100.00;100827.31;6266358;22;19910;-91
2022/11/09 04:12:01;;;;;;;;;;;;;;;11.97;100.00;100837.41;6312417;22;19907;-90
2022/11/09 04:14:27;;;;;;;;;;;;;;;11.93;100.00;100832.44;6285216;22;20391;-90
2022/11/09 04:16:52;;;;;;;;;;;;;;;11.76;100.00;100841.38;6260319;22;19911;-90
2022/11/09 04:19:18;;;;;;;;;;;;;;;11.80;100.00;100837.38;6313153;22;19949;-90
2022/11/09 04:21:43;;;;;;;;;;;;;;;11.67;100.00;100837.00;6260197;22;19921;-90
2022/11/09 04:24:08;;;;;;;;;;;;;;;11.69;100.00;100840.34;6259657;22;20380;-89
2022/11/09 04:26:34;;;;;;;;;;;;;;;11.65;100.00;100844.28;6311881;22;19994;-89
2022/11/09 04:28:59;;;;;;;;;;;;;;;11.65;100.00;100832.84;6312382;22;19957;-91
2022/11/09 04:31:25;;;;;;;;;;;;;;;11.83;100.00;100842.38;6311300;22;19911;-90
2022/11/09 04:33:50;;;;;;;;;;;;;;;11.76;100.00;100852.00;6311856;22;19911;-88
2022/11/09 04:36:16;;;;;;;;;;;;;;;12.01;100.00;100838.75;6311359;22;19942;-90
2022/11/09 04:38:41;;;;;;;;;;;;;;;11.97;100.00;100832.09;6312276;22;20292;-90
2022/11/09 04:41:07;;;;;;;;;;;;;;;11.98;100.00;100833.78;6285293;22;19926;-88
2022/11/09 04:43:33;;;;;;;;;;;;;;;11.61;100.00;100831.50;6312473;22;19910;-89
2022/11/09 04:45:59;;;;;;;;;;;;;;;11.45;100.00;100839.41;6315003;22;19962;-88
2022/11/09 04:48:25;;;;;;;;;;;;;;;11.33;100.00;100833.56;6283983;22;19915;-88
2022/11/09 04:50:50;;;;;;;;;;;;;;;11.43;100.00;100839.56;6310578;22;19911;-87
2022/11/09 04:53:16;;;;;;;;;;;;;;;11.57;100.00;100844.25;6283943;22;19911;-89
2022/11/09 04:55:41;;;;;;;;;;;;;;;11.43;100.00;100843.03;6312594;22;20073;-89
2022/11/09 04:58:07;;;;;;;;;;;;;;;11.59;100.00;100838.78;6312093;22;19915;-88
2022/11/09 05:00:32;;;;;;;;;;;;;;;11.77;100.00;100832.41;6311076;22;19911;-89
2022/11/09 05:02:59;;;;;;;;;;;;;;;11.71;100.00;100827.75;6284509;22;20183;-89
2022/11/09 05:05:25;;;;;;;;;;;;;;;11.63;100.00;100829.53;6284051;22;20287;-90
2022/11/09 05:07:50;;;;;;;;;;;;;;;11.82;100.00;100826.63;6311287;22;19950;-90
2022/11/09 05:10:15;;;;;;;;;;;;;;;12.02;100.00;100835.13;6284093;22;19907;-89
2022/11/09 05:12:41;;;;;;;;;;;;;;;12.03;100.00;100832.28;6284712;22;19911;-90
2022/11/09 05:15:06;;;;;;;;;;;;;;;11.93;100.00;100834.28;6311511;22;19911;-90
2022/11/09 05:17:32;;;;;;;;;;;;;;;11.85;100.00;100828.94;6282953;22;19911;-89
2022/11/09 05:19:57;;;;;;;;;;;;;;;11.85;100.00;100843.06;6309752;22;19985;-88
2022/11/09 05:25:07;;;;;;;;;;;;;;;12.06;100.00;100847.09;6310207;22;19906;-91
2022/11/09 05:27:32;;;;;;;;;;;;;;;11.70;100.00;100852.63;6258041;22;20006;-90
2022/11/09 05:29:57;;;;;;;;;;;;;;;11.55;100.00;100842.75;6310161;22;19911;-90
2022/11/09 05:32:23;;;;;;;;;;;;;;;11.53;100.00;100840.28;6282564;22;19910;-90
2022/11/09 05:34:48;;;;;;;;;;;;;;;11.53;100.00;100845.59;6284050;22;20330;-81
2022/11/09 05:37:16;;;;;;;;;;;;;;;11.49;100.00;100843.41;6256824;22;20245;-82
2022/11/09 05:39:42;;;;;;;;;;;;;;;11.60;100.00;100843.94;6310919;22;20326;-87
2022/11/09 05:42:09;;;;;;;;;;;;;;;11.54;100.00;100835.78;6314994;22;19918;-87
2022/11/09 05:44:34;;;;;;;;;;;;;;;11.71;100.00;100842.84;6316591;22;19907;-90
2022/11/09 05:46:59;;;;;;;;;;;;;;;11.61;100.00;100848.25;6315132;22;19949;-86
2022/11/09 05:49:25;;;;;;;;;;;;;;;11.67;100.00;100831.69;6315804;22;19938;-85
2022/11/09 05:51:51;;;;;;;;;;;;;;;11.82;100.00;100843.38;6315264;22;19938;-88
2022/11/09 05:54:17;;;;;;;;;;;;;;;11.67;100.00;100852.91;6315252;22;19933;-88
2022/11/09 05:56:42;;;;;;;;;;;;;;;11.68;100.00;100840.47;6314277;22;19918;-89
2022/11/09 05:59:08;;;;;;;;;;;;;;;11.82;100.00;100843.38;6314839;22;20317;-90
2022/11/09 06:01:33;;;;;;;;;;;;;;;11.81;100.00;100844.38;6288871;22;19907;-88
2022/11/09 06:03:58;;;;;;;;;;;;;;;11.62;100.00;100849.94;6313271;22;19910;-88
2022/11/09 06:06:24;;;;;;;;;;;;;;;11.67;100.00;100837.00;6286430;22;20359;-85
2022/11/09 06:08:50;;;;;;;;;;;;;;;11.71;100.00;100846.34;6286004;22;20210;-88
2022/11/09 06:11:15;;;;;;;;;;;;;;;11.67;100.00;100857.38;6286634;22;19911;-89
2022/11/09 06:13:40;;;;;;;;;;;;;;;11.71;100.00;100853.47;6311564;22;19911;-85
2022/11/09 06:16:06;;;;;;;;;;;;;;;11.65;100.00;100852.25;6310262;22;19946;-82
2022/11/09 06:18:34;;;;;;;;;;;;;;;11.65;100.00;100854.91;6312165;22;19963;-84
2022/11/09 06:21:01;;;;;;;;;;;;;;;11.85;100.00;100851.03;6320026;22;20002;-83
2022/11/09 06:23:33;;;;;;;;;;;;;;;11.86;100.00;100847.34;6334441;22;19932;-84
2022/11/09 06:26:00;;;;;;;;;;;;;;;12.06;100.00;100853.25;6334176;22;19902;-84
2022/11/09 06:28:25;;;;;;;;;;;;;;;11.82;100.00;100855.84;6334392;22;19919;-83
2022/11/09 06:30:51;;;;;;;;;;;;;;;11.75;100.00;100876.06;6315392;22;19918;-83
2022/11/09 06:33:17;;;;;;;;;;;;;;;11.71;100.00;100864.91;6312888;22;19911;-83
2022/11/09 06:35:42;;;;;;;;;;;;;;;11.76;100.00;100862.63;6315076;22;19913;-80
2022/11/09 06:38:09;;;;;;;;;;;;;;;11.75;100.00;100868.09;6312072;22;19926;-83
2022/11/09 06:40:35;;;;;;;;;;;;;;;11.98;100.00;100871.81;6314729;22;19914;-85
2022/11/09 06:43:01;;;;;;;;;;;;;;;11.64;100.00;100874.47;6312118;22;19911;-84
2022/11/09 06:45:27;;;;;;;;;;;;;;;11.58;100.00;100882.25;6313938;22;19930;-84
2022/11/09 06:48:00;;;;;;;;;;;;;;;11.87;100.00;100885.38;6314564;22;19946;-84
2022/11/09 06:50:27;;;;;;;;;;;;;;;11.73;100.00;100878.84;6312433;22;19938;-83
2022/11/09 06:52:59;;;;;;;;;;;;;;;11.59;100.00;100875.97;6281558;22;20398;-83
2022/11/09 06:55:28;;;;;;;;;;;;;;;11.52;100.00;100875.78;6282474;22;19915;-82
2022/11/09 06:57:55;;;;;;;;;;;;;;;11.54;100.00;100881.75;6283148;22;20241;-82
2022/11/09 07:00:21;;;;;;;;;;;;;;;11.57;100.00;100877.94;6283262;22;19911;-83
2022/11/09 07:02:47;;;;;;;;;;;;;;;11.66;100.00;100883.13;6310976;22;19986;-83
2022/11/09 07:05:12;;;;;;;;;;;;;;;11.54;100.00;100881.75;6310394;22;19911;-83
2022/11/09 07:07:37;;;;;;;;;;;;;;;11.47;100.00;100878.06;6310641;22;20223;-83
2022/11/09 07:10:03;;;;;;;;;;;;;;;11.47;100.00;100891.31;6310543;22;19914;-82
2022/11/09 07:12:28;;;;;;;;;;;;;;;11.35;100.00;100880.16;6284344;22;19933;-83
2022/11/09 07:14:54;;;;;;;;;;;;;;;11.57;100.00;100873.44;6311318;22;20001;-83
2022/11/09 07:17:22;;;;;;;;;;;;;;;11.60;100.00;100878.44;6311207;22;19911;-82
2022/11/09 07:19:47;;;;;;;;;;;;;;;11.45;100.00;100884.53;6311575;22;19944;-84
2022/11/09 07:22:13;;;;;;;;;;;;;;;11.29;100.00;100885.28;6312764;22;19911;-81
2022/11/09 07:24:38;;;;;;;;;;;;;;;11.20;100.00;100888.88;6285630;22;19911;-80
2022/11/09 07:27:04;;;;;;;;;;;;;;;11.44;100.00;100875.72;6285443;22;20302;-83
2022/11/09 07:29:30;;;;;;;;;;;;;;;11.72;100.00;100879.88;6311368;22;20232;-84
2022/11/09 07:31:56;;;;;;;;;;;;;;;11.57;100.00;100878.75;6259463;22;19986;-84
2022/11/09 07:34:21;;;;;;;;;;;;;;;11.55;100.00;100885.22;6288174;22;19953;-84
2022/11/09 07:36:46;;;;;;;;;;;;;;;11.47;100.00;100898.47;6318914;22;19911;-80
2022/11/09 07:39:12;;;;;;;;;;;;;;;11.48;100.00;100893.00;6305759;22;19907;-81
2022/11/09 07:41:37;;;;;;;;;;;;;;;11.50;100.00;100893.66;6332221;22;20428;-81
2022/11/09 07:44:03;;;;;;;;;;;;;;;11.69;100.00;100898.75;6329298;22;19990;-81
2022/11/09 07:46:28;;;;;;;;;;;;;;;11.61;100.00;100897.84;6332138;22;20325;-85
2022/11/09 07:48:54;;;;;;;;;;;;;;;11.59;100.00;100898.03;6326770;22;19915;-82
2022/11/09 07:51:19;;;;;;;;;;;;;;;11.74;100.00;100901.78;6323907;22;19918;-83
2022/11/09 07:53:45;;;;;;;;;;;;;;;11.70;100.00;100905.72;6324906;22;19922;-83
2022/11/09 07:56:13;;;;;;;;;;;;;;;12.02;100.00;100894.41;6324031;22;19910;-84
2022/11/09 07:58:39;;;;;;;;;;;;;;;12.24;100.00;100898.25;6318822;22;19914;-84
2022/11/09 08:01:08;;;;;;;;;;;;;;;12.20;100.00;100895.09;6314653;22;19968;-82
2022/11/09 08:03:36;;;;;;;;;;;;;;;12.09;100.00;100900.72;6285484;22;19903;-84
2022/11/09 08:06:05;;;;;;;;;;;;;;;11.93;100.00;100912.13;6312123;22;19915;-83
2022/11/09 08:08:31;;;;;;;;;;;;;;;12.08;100.00;100899.06;6311154;22;19911;-83
2022/11/09 08:10:57;;;;;;;;;;;;;;;12.04;100.00;100915.47;6310915;22;20309;-85
2022/11/09 08:13:22;;;;;;;;;;;;;;;12.29;100.00;100907.41;6310429;22;19989;-83
2022/11/09 08:15:48;;;;;;;;;;;;;;;12.52;100.00;100899.63;6310998;22;19911;-84
2022/11/09 08:18:14;;;;;;;;;;;;;;;12.62;100.00;100892.31;6310761;22;19911;-83
2022/11/09 08:20:40;;;;;;;;;;;;;;;12.67;100.00;100895.31;6310227;22;19921;-85
2022/11/09 08:23:06;;;;;;;;;;;;;;;12.50;100.00;100893.63;6309514;22;20325;-83
2022/11/09 08:25:34;;;;;;;;;;;;;;;12.67;100.00;100902.44;6309936;22;19914;-84
2022/11/09 08:28:00;;;;;;;;;;;;;;;12.41;100.00;100910.56;6282132;22;20322;-84
2022/11/09 08:30:25;;;;;;;;;;;;;;;12.38;100.00;100916.22;6309933;22;19955;-85
2022/11/09 08:32:51;;;;;;;;;;;;;;;12.48;100.00;100911.59;6309903;22;20326;-84
2022/11/09 08:35:19;;;;;;;;;;;;;;;12.42;100.00;100912.25;6310086;22;19911;-84
2022/11/09 08:37:45;;;;;;;;;;;;;;;12.36;100.00;100912.91;6309931;22;20231;-84
2022/11/09 08:40:11;;;;;;;;;;;;;;;12.66;100.00;100922.88;6310432;22;19903;-84
2022/11/09 08:42:36;;;;;;;;;;;;;;;12.93;100.00;100914.56;6310136;22;19997;-85
2022/11/09 08:45:02;;;;;;;;;;;;;;;13.14;100.00;100919.41;6310040;22;20333;-84
2022/11/09 08:47:28;;;;;;;;;;;;;;;13.13;100.00;100919.56;6283035;22;19914;-84
2022/11/09 08:49:54;;;;;;;;;;;;;;;13.00;100.00;100905.91;6311202;22;19918;-84
2022/11/09 08:52:20;;;;;;;;;;;;;;;13.13;100.00;100906.25;6313021;22;19914;-84
2022/11/09 08:54:45;;;;;;;;;;;;;;;12.76;100.00;100910.25;6314180;22;19989;-83
2022/11/09 08:57:11;;;;;;;;;;;;;;;13.05;100.00;100919.56;6314024;22;19911;-84
2022/11/09 08:59:36;;;;;;;;;;;;;;;12.77;100.00;100906.59;6315225;22;19906;-82
2022/11/09 09:02:02;;;;;;;;;;;;;;;13.08;100.00;100900.59;6314304;22;20211;-83
2022/11/09 09:04:28;;;;;;;;;;;;;;;12.90;100.00;100900.78;6315405;22;19903;-84
2022/11/09 09:06:54;;;;;;;;;;;;;;;12.78;100.00;100894.97;6262013;22;19917;-83
2022/11/09 09:09:19;;;;;;;;;;;;;;;12.91;100.00;100903.28;6314548;22;19938;-84
2022/11/09 09:11:45;;;;;;;;;;;;;;;12.75;100.00;100905.94;6286848;22;19961;-84
2022/11/09 09:14:10;;;;;;;;;;;;;;;13.13;100.00;100900.94;6287302;22;19919;-84
2022/11/09 09:16:36;;;;;;;;;;;;;;;13.20;100.00;100901.91;6287204;22;19911;-84
2022/11/09 09:19:01;;;;;;;;;;;;;;;13.10;100.00;100901.28;6314849;22;19959;-83
2022/11/09 09:21:27;;;;;;;;;;;;;;;13.33;100.00;100912.88;6315339;22;20234;-83
2022/11/09 09:23:53;;;;;;;;;;;;;;;13.23;100.00;100910.41;6315332;22;19962;-83
2022/11/09 09:26:18;;;;;;;;;;;;;;;13.36;100.00;100915.19;6315518;22;19954;-83
2022/11/09 09:28:43;;;;;;;;;;;;;;;13.91;100.00;100912.50;6316064;22;20330;-84
2022/11/09 09:31:09;;;;;;;;;;;;;;;13.60;100.00;100915.13;6317697;22;19911;-84
2022/11/09 09:33:34;;;;;;;;;;;;;;;13.61;100.00;100919.47;6320449;22;19911;-86
2022/11/09 09:36:00;;;;;;;;;;;;;;;13.68;100.00;100922.25;6321041;22;19911;-82
2022/11/09 09:38:26;;;;;;;;;;;;;;;13.66;100.00;100922.41;6329683;22;19949;-84
2022/11/09 09:40:59;;;;;;;;;;;;;;;13.65;100.00;100920.78;6322366;22;20241;-84
2022/11/09 09:43:27;;;;;;;;;;;;;;;13.58;100.00;100919.81;6314473;22;20357;-84
2022/11/09 09:45:53;;;;;;;;;;;;;;;13.51;100.00;100926.81;6314332;22;19911;-83
2022/11/09 09:48:28;;;;;;;;;;;;;;;13.37;100.00;100931.00;6286645;22;19911;-86
2022/11/09 09:50:57;;;;;;;;;;;;;;;13.29;100.00;100938.19;6288516;22;19915;-84
2022/11/09 09:53:31;;;;;;;;;;;;;;;13.15;100.00;100933.53;6316647;22;19911;-83
2022/11/09 09:56:03;;;;;;;;;;;;;;;13.02;100.00;100928.72;6327809;22;19917;-83
2022/11/09 09:58:30;;;;;;;;;;;;;;;13.21;100.00;100935.53;6330620;22;19922;-84
2022/11/09 10:01:05;;;;;;;;;;;;;;;13.07;100.00;100923.69;6334096;22;19920;-83
2022/11/09 10:03:30;;;;;;;;;;;;;;;13.00;100.00;100921.88;6304728;22;19910;-83
2022/11/09 10:06:25;;;;;;;;;;;;;;;13.06;100.00;100934.53;6325004;22;20345;-85
2022/11/09 10:08:59;;;;;;;;;;;;;;;12.95;100.00;100933.88;6324665;22;19910;-82
2022/11/09 10:11:39;;;;;;;;;;;;;;;12.90;100.00;100936.19;6327227;22;19925;-83
2022/11/09 10:14:07;;;;;;;;;;;;;;;13.02;100.00;100946.50;6333000;22;19916;-82
2022/11/09 10:16:33;;;;;;;;;;;;;;;13.04;100.00;100932.03;6332485;22;20317;-81
2022/11/09 10:18:58;;;;;;;;;;;;;;;13.06;100.00;100929.22;6331293;22;19930;-83
2022/11/09 10:21:33;;;;;;;;;;;;;;;13.06;100.00;100926.53;6329493;22;19919;-81
2022/11/09 10:24:04;;;;;;;;;;;;;;;13.06;100.00;100926.53;6321740;22;19913;-82
2022/11/09 10:26:30;;;;;;;;;;;;;;;13.09;100.00;100931.56;6286019;22;19941;-82
2022/11/09 10:28:58;;;;;;;;;;;;;;;13.16;100.00;100920.06;6319197;22;19906;-83
2022/11/09 10:31:27;;;;;;;;;;;;;;;13.24;100.00;100917.38;6321021;22;19916;-83
2022/11/09 10:33:57;;;;;;;;;;;;;;;13.39;100.00;100921.00;6289646;22;20245;-84
2022/11/09 10:36:22;;;;;;;;;;;;;;;13.29;100.00;100915.03;6292801;22;19911;-83
2022/11/09 10:38:49;;;;;;;;;;;;;;;13.46;100.00;100915.81;6323068;22;19907;-84
2022/11/09 10:41:37;;;;;;;;;;;;;;;13.39;100.00;100922.81;6324936;22;19925;-85
2022/11/09 10:44:21;;;;;;;;;;;;;;;13.36;100.00;100923.16;6309511;22;19924;-86
2022/11/09 10:47:06;;;;;;;;;;;;;;;13.36;100.00;100923.16;6313649;22;19921;-87
2022/11/09 10:50:21;;;;;;;;;;;;;;;13.36;100.00;100909.84;6335722;22;19929;-89
2022/11/09 10:53:17;;;;;;;;;;;;;;;13.38;100.00;100914.03;6295620;22;19941;-83
2022/11/09 10:56:13;;;;;;;;;;;;;;;13.44;100.00;100920.50;6314322;22;19918;-86
2022/11/09 10:58:57;;;;;;;;;;;;;;;13.50;100.00;100919.81;6311727;22;19917;-85
2022/11/09 11:01:41;;;;;;;;;;;;;;;13.51;100.00;100918.81;6288425;22;19918;-86
2022/11/09 11:04:25;;;;;;;;;;;;;;;13.41;100.00;100910.19;6314184;22;20372;-84
2022/11/09 11:07:13;;;;;;;;;;;;;;;13.38;100.00;100900.72;6316538;22;19998;-85
2022/11/09 11:10:08;;;;;;;;;;;;;;;13.48;100.00;100911.19;6291881;22;20321;-82
2022/11/09 11:12:58;;;;;;;;;;;;;;;13.47;100.00;100920.16;6293045;22;20357;-84
2022/11/09 11:15:42;;;;;;;;;;;;;;;13.46;100.00;100908.66;6315374;22;20395;-85
2022/11/09 11:18:26;;;;;;;;;;;;;;;13.60;100.00;100909.78;6315159;22;19955;-83
2022/11/09 11:21:30;;;;;;;;;;;;;;;13.51;100.00;100905.50;6316087;22;19937;-85
2022/11/09 11:24:18;;;;;;;;;;;;;;;13.64;100.00;100897.81;6314145;22;20384;-84
2022/11/09 11:27:10;;;;;;;;;;;;;;;13.58;100.00;100903.00;6314428;22;20022;-83
2022/11/09 11:29:58;;;;;;;;;;;;;;;13.66;100.00;100894.94;6315102;22;19918;-84
2022/11/09 11:32:42;;;;;;;;;;;;;;;13.61;100.00;100895.47;6292539;22;19922;-87
2022/11/09 11:35:33;;;;;;;;;;;;;;;13.95;100.00;100895.97;6290656;22;20361;-86
2022/11/09 11:38:17;;;;;;;;;;;;;;;13.98;100.00;100908.13;6315050;22;19918;-85
2022/11/09 11:41:10;;;;;;;;;;;;;;;14.04;100.00;100895.94;6316490;22;19991;-86
2022/11/09 11:43:55;;;;;;;;;;;;;;;14.16;100.00;100894.53;6319333;22;19917;-86
2022/11/09 11:46:42;;;;;;;;;;;;;;;14.13;100.00;100887.72;6319007;22;19973;-86
2022/11/09 11:49:26;;;;;;;;;;;;;;;14.11;100.00;100891.56;6314390;22;20189;-88
2022/11/09 11:52:10;;;;;;;;;;;;;;;14.31;100.00;100882.13;6289296;22;19921;-87
2022/11/09 11:55:00;;;;;;;;;;;;;;;14.38;100.00;100888.44;6310515;22;20332;-86
2022/11/09 11:58:02;;;;;;;;;;;;;;;14.15;100.00;100880.38;6312053;22;19964;-84
2022/11/09 12:00:57;;;;;;;;;;;;;;;14.20;100.00;100870.00;6310917;22;19933;-84
2022/11/09 12:03:47;;;;;;;;;;;;;;;14.10;100.00;100869.41;6312365;22;19917;-85
2022/11/09 12:06:43;;;;;;;;;;;;;;;14.12;100.00;100867.38;6292866;22;19956;-87
2022/11/09 12:09:48;;;;;;;;;;;;;;;14.25;100.00;100861.50;6320602;22;19933;-90
2022/11/09 12:12:52;;;;;;;;;;;;;;;14.18;100.00;100855.22;6308102;22;19905;-90
2022/11/09 12:15:47;;;;;;;;;;;;;;;14.06;100.00;100848.59;6328966;22;19909;-88
2022/11/09 12:18:50;;;;;;;;;;;;;;;14.18;100.00;100828.56;6253625;22;19937;-88
2022/11/09 12:21:43;;;;;;;;;;;;;;;14.23;100.00;100826.16;6255520;22;20473;-83
2022/11/09 12:24:33;;;;;;;;;;;;;;;14.02;100.00;100815.34;6279551;22;19918;-86
2022/11/09 12:27:33;;;;;;;;;;;;;;;13.83;100.00;100830.78;6282287;22;20338;-83
2022/11/09 12:30:19;;;;;;;;;;;;;;;13.90;100.00;100821.06;6280194;22;19922;-82
2022/11/09 12:33:24;;;;;;;;;;;;;;;13.95;100.00;100816.03;6279771;22;19986;-85
2022/11/09 12:36:31;;;;;;;;;;;;;;;14.35;100.00;100822.13;6219970;22;19949;-81
2022/11/09 12:39:33;;;;;;;;;;;;;;;14.48;100.00;100822.34;6278544;22;19964;-82
2022/11/09 12:42:36;;;;;;;;;;;;;;;14.20;100.00;100821.19;6279637;22;20258;-83
2022/11/09 12:45:27;;;;;;;;;;;;;;;13.96;100.00;100825.69;6279681;22;19964;-84